Time;durP1;ratioP1;P1;durP2;ratioP2;P2;SDS_P1;SDS_P2;PMS_P1;PMS_P2;Temp;Humidity;BMP_temperature;BMP_pressure;BME280_temperature;BME280_humidity;BME280_pressure;Samples;Min_cycle;Max_cycle;Signal;HPM_P1;HPM_P2
2021/08/23 00:02:11;;;;;;;10.43;6.53;;;22.30;99.90;;;;;;5115790;28;20731;-64
2021/08/23 00:04:37;;;;;;;8.00;6.23;;;22.20;99.90;;;;;;5117065;28;20420;-65
2021/08/23 00:07:04;;;;;;;12.00;7.20;;;22.20;99.90;;;;;;5117052;28;20179;-65
2021/08/23 00:09:30;;;;;;;6.90;6.20;;;22.20;99.90;;;;;;5115545;28;20183;-64
2021/08/23 00:11:57;;;;;;;8.60;6.50;;;22.20;99.90;;;;;;5149866;27;20524;-64
2021/08/23 00:14:22;;;;;;;8.80;6.27;;;22.10;99.90;;;;;;5116688;28;20802;-64
2021/08/23 00:16:48;;;;;;;9.50;6.33;;;22.10;99.90;;;;;;5116779;28;20523;-64
2021/08/23 00:19:14;;;;;;;8.53;6.20;;;22.10;99.90;;;;;;5116587;28;20199;-64
2021/08/23 00:21:43;;;;;;;10.83;6.50;;;22.10;99.90;;;;;;5149762;27;20218;-64
2021/08/23 00:24:22;;;;;;;7.30;6.60;;;22.10;99.90;;;;;;5116649;28;20234;-66
2021/08/23 00:26:49;;;;;;;9.23;6.40;;;22.10;99.90;;;;;;5149700;27;20577;-66
2021/08/23 00:29:15;;;;;;;8.63;6.03;;;22.10;99.90;;;;;;5115178;28;20934;-64
2021/08/23 00:31:40;;;;;;;8.70;6.20;;;22.00;99.90;;;;;;5116500;28;20514;-66
2021/08/23 00:34:06;;;;;;;8.70;6.77;;;22.00;99.90;;;;;;5115121;28;20172;-66
2021/08/23 00:36:31;;;;;;;10.63;6.60;;;21.90;99.90;;;;;;5114995;28;20196;-64
2021/08/23 00:38:57;;;;;;;8.77;6.80;;;21.80;99.90;;;;;;5116311;28;20518;-65
2021/08/23 00:41:23;;;;;;;11.37;6.70;;;21.80;99.90;;;;;;5114693;28;20210;-65
2021/08/23 00:43:48;;;;;;;7.00;5.97;;;21.70;99.90;;;;;;5116241;28;20597;-65
2021/08/23 00:46:14;;;;;;;8.23;6.53;;;21.70;99.90;;;;;;5114805;28;20677;-65
2021/08/23 00:48:39;;;;;;;10.10;7.30;;;21.60;99.90;;;;;;5116625;28;20183;-64
2021/08/23 00:51:06;;;;;;;9.10;6.43;;;21.60;99.90;;;;;;5116055;28;20195;-64
2021/08/23 00:53:32;;;;;;;14.03;6.40;;;21.50;99.90;;;;;;5115946;27;20180;-65
2021/08/23 00:55:58;;;;;;;10.33;7.23;;;21.50;99.90;;;;;;5115931;28;20430;-65
2021/08/23 00:58:23;;;;;;;7.93;6.50;;;21.40;99.90;;;;;;5116463;28;20629;-66
2021/08/23 01:01:03;;;;;;;8.63;6.30;;;21.40;99.90;;;;;;5115822;28;20199;-64
2021/08/23 01:03:40;;;;;;;7.87;6.57;;;21.30;99.90;;;;;;5116424;28;20175;-64
2021/08/23 01:06:08;;;;;;;14.40;7.20;;;21.30;99.90;;;;;;5115755;28;20506;-64
2021/08/23 01:08:39;;;;;;;8.60;6.63;;;21.30;99.90;;;;;;5115705;28;20505;-64
2021/08/23 01:11:13;;;;;;;9.33;7.17;;;21.30;99.90;;;;;;5115584;28;20513;-64
2021/08/23 01:13:47;;;;;;;14.37;8.40;;;21.20;99.90;;;;;;5115882;28;20905;-64
2021/08/23 01:16:13;;;;;;;8.27;6.87;;;21.20;99.90;;;;;;5115519;27;20427;-64
2021/08/23 01:18:41;;;;;;;8.27;7.17;;;21.20;99.90;;;;;;5116191;28;20427;-66
2021/08/23 01:21:09;;;;;;;10.07;7.77;;;21.20;99.90;;;;;;5115340;27;20496;-64
2021/08/23 01:23:36;;;;;;;10.03;7.03;;;21.20;99.90;;;;;;5115968;28;20425;-64
2021/08/23 01:26:03;;;;;;;7.83;6.60;;;21.20;99.90;;;;;;5115222;27;20447;-64
2021/08/23 01:28:53;;;;;;;8.73;7.33;;;21.10;99.90;;;;;;5115814;28;20411;-64
2021/08/23 01:31:40;;;;;;;12.03;6.93;;;21.10;99.90;;;;;;5113789;28;20846;-65
2021/08/23 01:34:06;;;;;;;11.27;7.30;;;21.10;99.90;;;;;;5115339;28;20449;-64
2021/08/23 01:36:32;;;;;;;9.33;7.10;;;21.10;99.90;;;;;;5115053;28;20420;-64
2021/08/23 01:38:59;;;;;;;12.30;7.20;;;21.10;99.90;;;;;;5115086;28;20427;-66
2021/08/23 01:41:24;;;;;;;7.30;6.60;;;21.10;99.90;;;;;;5148022;27;20746;-66
2021/08/23 01:43:51;;;;;;;10.97;7.30;;;21.10;99.90;;;;;;5115092;28;20416;-64
2021/08/23 01:46:17;;;;;;;11.03;7.47;;;21.10;99.90;;;;;;5113619;28;20199;-64
2021/08/23 01:48:42;;;;;;;8.60;6.60;;;21.10;99.90;;;;;;5147967;27;20439;-64
2021/08/23 01:51:08;;;;;;;8.40;6.93;;;21.10;99.90;;;;;;5114764;28;20199;-64
2021/08/23 01:53:33;;;;;;;8.17;7.30;;;21.10;99.90;;;;;;5115451;28;20262;-64
2021/08/23 01:56:01;;;;;;;9.40;7.07;;;21.10;99.90;;;;;;5113418;28;20195;-64
2021/08/23 01:58:27;;;;;;;11.00;6.90;;;21.10;99.90;;;;;;5115393;28;20213;-64
2021/08/23 02:00:53;;;;;;;9.10;6.60;;;21.10;99.90;;;;;;5114850;28;20479;-65
2021/08/23 02:03:18;;;;;;;11.00;8.10;;;21.10;99.90;;;;;;5113264;28;20547;-64
2021/08/23 02:05:44;;;;;;;9.53;7.57;;;21.00;99.90;;;;;;5114600;28;20254;-64
2021/08/23 02:08:10;;;;;;;10.03;9.03;;;21.00;99.90;;;;;;5147842;27;20182;-64
2021/08/23 02:10:36;;;;;;;13.87;7.47;;;21.00;99.90;;;;;;5147769;27;20232;-65
2021/08/23 02:13:02;;;;;;;10.13;7.57;;;20.90;99.90;;;;;;5113613;28;20435;-63
2021/08/23 02:15:27;;;;;;;10.50;7.97;;;20.90;99.90;;;;;;5113132;28;20675;-64
2021/08/23 02:17:53;;;;;;;8.83;7.80;;;20.90;99.90;;;;;;5114801;28;20445;-65
2021/08/23 02:20:19;;;;;;;11.80;7.40;;;20.90;99.90;;;;;;5114294;28;20570;-64
2021/08/23 02:22:45;;;;;;;7.87;7.03;;;20.80;99.90;;;;;;5114742;28;20244;-64
2021/08/23 02:25:11;;;;;;;9.27;7.50;;;20.80;99.90;;;;;;5113436;28;20478;-64
2021/08/23 02:27:36;;;;;;;10.30;7.10;;;20.80;99.90;;;;;;5114630;28;20405;-64
2021/08/23 02:30:03;;;;;;;8.17;7.37;;;20.80;99.90;;;;;;5114229;28;20200;-64
2021/08/23 02:32:28;;;;;;;8.40;7.30;;;20.80;99.90;;;;;;5147463;27;20186;-65
2021/08/23 02:34:54;;;;;;;14.17;7.90;;;20.80;99.90;;;;;;5114191;28;20435;-65
2021/08/23 02:37:19;;;;;;;11.43;7.00;;;20.80;99.90;;;;;;5114361;28;20233;-64
2021/08/23 02:39:45;;;;;;;16.03;8.20;;;20.80;99.90;;;;;;5114070;28;20230;-64
2021/08/23 02:42:11;;;;;;;11.07;7.90;;;20.80;99.90;;;;;;5114329;28;20168;-65
2021/08/23 02:44:36;;;;;;;9.63;7.30;;;20.90;99.90;;;;;;5114099;28;20198;-66
2021/08/23 02:47:02;;;;;;;8.20;7.40;;;20.90;99.90;;;;;;5114326;28;20182;-64
2021/08/23 02:49:28;;;;;;;8.83;7.93;;;20.90;99.90;;;;;;5147148;27;20273;-64
2021/08/23 02:51:54;;;;;;;11.97;8.10;;;20.90;99.90;;;;;;5113931;28;20404;-64
2021/08/23 02:54:20;;;;;;;10.03;7.97;;;20.90;99.90;;;;;;5147110;27;20224;-65
2021/08/23 02:56:47;;;;;;;8.83;7.10;;;20.90;99.90;;;;;;5114072;28;20446;-64
2021/08/23 02:59:12;;;;;;;11.63;8.90;;;20.90;99.90;;;;;;5112627;28;20443;-64
2021/08/23 03:01:38;;;;;;;9.40;7.40;;;20.90;99.90;;;;;;5113908;28;20490;-66
2021/08/23 03:04:04;;;;;;;9.60;8.00;;;21.00;99.90;;;;;;5113966;28;20209;-66
2021/08/23 03:06:30;;;;;;;8.37;7.40;;;21.00;99.90;;;;;;5112461;28;20291;-64
2021/08/23 03:08:56;;;;;;;9.90;7.87;;;21.00;99.90;;;;;;5113989;28;20475;-65
2021/08/23 03:11:21;;;;;;;9.17;7.47;;;21.00;99.90;;;;;;5112574;28;20294;-64
2021/08/23 03:13:47;;;;;;;9.70;7.90;;;21.00;99.90;;;;;;5113923;28;20175;-66
2021/08/23 03:16:13;;;;;;;8.90;7.50;;;21.00;99.90;;;;;;5113790;28;20206;-64
2021/08/23 03:18:39;;;;;;;10.20;8.07;;;21.00;99.90;;;;;;5114285;28;20534;-64
2021/08/23 03:21:05;;;;;;;12.93;8.17;;;20.90;99.90;;;;;;5113602;28;20204;-64
2021/08/23 03:23:31;;;;;;;7.97;7.17;;;20.90;99.90;;;;;;5112830;28;20426;-64
2021/08/23 03:25:58;;;;;;;7.40;6.70;;;20.90;99.90;;;;;;5113754;28;20565;-64
2021/08/23 03:28:24;;;;;;;8.80;7.73;;;20.90;99.90;;;;;;5113721;28;20932;-64
2021/08/23 03:30:50;;;;;;;12.90;8.10;;;20.80;99.90;;;;;;5113614;28;20469;-64
2021/08/23 03:33:16;;;;;;;9.63;7.60;;;20.90;99.90;;;;;;5113564;28;20172;-65
2021/08/23 03:35:41;;;;;;;8.57;7.37;;;20.80;99.90;;;;;;5147253;27;20195;-66
2021/08/23 03:38:07;;;;;;;9.60;7.80;;;20.90;99.90;;;;;;5150882;27;20469;-65
2021/08/23 03:40:33;;;;;;;11.47;7.27;;;20.80;99.90;;;;;;5117388;28;20228;-66
2021/08/23 03:42:59;;;;;;;10.17;7.60;;;20.70;99.90;;;;;;5117684;28;20274;-64
2021/08/23 03:45:24;;;;;;;10.10;8.10;;;20.70;99.90;;;;;;5117246;28;20423;-64
2021/08/23 03:47:50;;;;;;;10.10;8.67;;;20.70;99.90;;;;;;5117850;28;20180;-64
2021/08/23 03:50:15;;;;;;;9.50;8.50;;;20.70;99.90;;;;;;5150253;27;20201;-65
2021/08/23 03:52:41;;;;;;;8.33;7.53;;;20.60;99.90;;;;;;5117311;28;20177;-64
2021/08/23 03:55:08;;;;;;;10.97;7.80;;;20.60;99.90;;;;;;5117012;28;20201;-64
2021/08/23 03:57:35;;;;;;;9.77;6.87;;;20.50;99.90;;;;;;5117364;28;20182;-64
2021/08/23 04:00:04;;;;;;;8.97;7.40;;;20.50;99.90;;;;;;5116925;28;20828;-64
2021/08/23 04:02:30;;;;;;;8.50;7.70;;;20.50;99.90;;;;;;5117235;28;20458;-65
2021/08/23 04:04:56;;;;;;;9.87;7.90;;;20.40;99.90;;;;;;5116984;28;20426;-64
2021/08/23 04:07:21;;;;;;;10.60;8.97;;;20.40;99.90;;;;;;5115793;28;20874;-64
2021/08/23 04:09:47;;;;;;;15.33;10.00;;;20.40;99.90;;;;;;5115601;28;20207;-64
2021/08/23 04:12:13;;;;;;;9.30;8.40;;;20.40;99.90;;;;;;5116811;28;20185;-64
2021/08/23 04:14:38;;;;;;;10.70;8.23;;;20.50;99.90;;;;;;5116807;28;20217;-66
2021/08/23 04:17:04;;;;;;;9.40;8.17;;;20.50;99.90;;;;;;5116933;28;20174;-65
2021/08/23 04:19:30;;;;;;;10.43;7.90;;;20.50;99.90;;;;;;5116622;28;20202;-64
2021/08/23 04:21:56;;;;;;;9.87;8.60;;;20.50;99.90;;;;;;5149686;27;20237;-66
2021/08/23 04:24:22;;;;;;;16.60;8.80;;;20.50;99.90;;;;;;5116572;28;20463;-65
2021/08/23 04:26:47;;;;;;;10.50;8.20;;;20.50;99.90;;;;;;5149813;27;20185;-64
2021/08/23 04:29:15;;;;;;;9.93;8.97;;;20.50;99.90;;;;;;5116463;28;20202;-64
2021/08/23 04:31:41;;;;;;;10.13;8.23;;;20.50;99.90;;;;;;5116397;28;20263;-64
2021/08/23 04:34:06;;;;;;;8.93;8.03;;;20.50;99.90;;;;;;5115665;28;20925;-64
2021/08/23 04:36:32;;;;;;;12.33;7.77;;;20.50;99.90;;;;;;5115598;28;20474;-64
2021/08/23 04:38:58;;;;;;;12.97;9.73;;;20.60;99.90;;;;;;5115784;28;20251;-64
2021/08/23 04:41:23;;;;;;;13.23;7.93;;;20.60;99.90;;;;;;5114745;28;20247;-64
2021/08/23 04:43:49;;;;;;;9.80;8.80;;;20.60;99.90;;;;;;5115604;28;20225;-64
2021/08/23 04:46:14;;;;;;;10.43;8.40;;;20.60;99.90;;;;;;5115179;28;20749;-65
2021/08/23 04:48:40;;;;;;;10.70;8.57;;;20.70;99.90;;;;;;5115446;28;20663;-64
2021/08/23 04:51:07;;;;;;;9.20;7.63;;;20.70;99.90;;;;;;5116063;28;20272;-65
2021/08/23 04:53:32;;;;;;;11.53;7.97;;;20.70;99.90;;;;;;5115476;28;20177;-64
2021/08/23 04:55:58;;;;;;;18.20;9.43;;;20.80;99.90;;;;;;5115484;28;20951;-64
2021/08/23 04:58:24;;;;;;;10.37;9.10;;;20.80;99.90;;;;;;5116425;28;20410;-64
2021/08/23 05:00:49;;;;;;;13.30;8.63;;;20.80;99.90;;;;;;5114758;28;20222;-64
2021/08/23 05:03:15;;;;;;;11.13;7.97;;;20.80;99.90;;;;;;5115489;28;20178;-65
2021/08/23 05:05:42;;;;;;;10.10;7.23;;;20.90;99.90;;;;;;5115881;28;20594;-64
2021/08/23 05:08:08;;;;;;;9.27;7.67;;;20.90;99.90;;;;;;5116110;28;20548;-64
2021/08/23 05:10:34;;;;;;;11.20;7.07;;;20.90;99.90;;;;;;5115125;27;20441;-66
2021/08/23 05:13:00;;;;;;;8.60;7.00;;;20.90;99.90;;;;;;5115890;28;20915;-64
2021/08/23 05:15:26;;;;;;;10.93;7.43;;;20.90;99.90;;;;;;5115590;28;20420;-65
2021/08/23 05:17:52;;;;;;;8.13;6.73;;;21.00;99.90;;;;;;5115153;28;20517;-64
2021/08/23 05:20:18;;;;;;;13.00;6.93;;;21.00;99.90;;;;;;5114652;28;20511;-64
2021/08/23 05:22:44;;;;;;;7.63;6.80;;;21.00;99.90;;;;;;5115322;28;20189;-64
2021/08/23 05:25:10;;;;;;;7.73;6.30;;;21.00;99.90;;;;;;5108130;28;20479;-64
2021/08/23 05:27:36;;;;;;;10.73;6.70;;;21.10;99.90;;;;;;5101181;28;20183;-64
2021/08/23 05:30:03;;;;;;;8.63;7.40;;;21.10;99.90;;;;;;5114890;28;20791;-64
2021/08/23 05:32:29;;;;;;;7.30;6.57;;;21.10;99.90;;;;;;5104768;28;20924;-64
2021/08/23 05:34:54;;;;;;;15.47;7.80;;;21.10;99.90;;;;;;5108195;28;20513;-66
2021/08/23 05:37:20;;;;;;;8.40;6.23;;;21.20;99.90;;;;;;5113185;28;20189;-65
2021/08/23 05:39:46;;;;;;;8.50;6.37;;;21.20;99.90;;;;;;5132922;27;20206;-66
2021/08/23 05:42:12;;;;;;;9.30;7.37;;;21.30;99.90;;;;;;5103844;28;20183;-64
2021/08/23 05:44:38;;;;;;;7.23;6.53;;;21.30;99.90;;;;;;5114063;28;20491;-66
2021/08/23 05:47:03;;;;;;;7.83;6.17;;;21.40;99.90;;;;;;5105075;28;20185;-66
2021/08/23 05:49:29;;;;;;;8.13;6.40;;;21.50;99.90;;;;;;5108161;28;20526;-64
2021/08/23 05:51:55;;;;;;;8.00;6.43;;;21.60;99.90;;;;;;5095909;28;20240;-64
2021/08/23 05:54:20;;;;;;;7.93;6.47;;;21.70;99.90;;;;;;5101340;28;20198;-64
2021/08/23 05:56:46;;;;;;;9.93;6.87;;;21.70;99.90;;;;;;5129607;27;20180;-65
2021/08/23 05:59:12;;;;;;;7.10;6.00;;;21.90;99.90;;;;;;5095640;28;20207;-65
2021/08/23 06:01:37;;;;;;;7.20;6.50;;;21.90;99.90;;;;;;5113894;28;20208;-66
2021/08/23 06:04:03;;;;;;;8.70;6.77;;;22.00;99.90;;;;;;5112787;28;20229;-65
2021/08/23 06:06:29;;;;;;;8.87;6.70;;;22.10;99.90;;;;;;5113661;28;20237;-64
2021/08/23 06:08:54;;;;;;;7.20;6.20;;;22.10;99.90;;;;;;5109593;28;20241;-66
2021/08/23 06:11:20;;;;;;;7.47;6.30;;;22.20;99.90;;;;;;5114104;28;20188;-65
2021/08/23 06:13:48;;;;;;;7.53;6.80;;;22.30;99.90;;;;;;5114693;28;20194;-66
2021/08/23 06:16:13;;;;;;;9.93;6.30;;;22.40;99.90;;;;;;5113626;28;20202;-64
2021/08/23 06:18:39;;;;;;;8.00;6.17;;;22.50;99.90;;;;;;5109768;28;20793;-64
2021/08/23 06:21:05;;;;;;;7.70;6.90;;;22.60;99.90;;;;;;5112763;28;20314;-64
2021/08/23 06:23:30;;;;;;;6.87;6.20;;;22.70;99.90;;;;;;5112501;28;20213;-65
2021/08/23 06:25:56;;;;;;;6.70;6.00;;;22.80;99.90;;;;;;5107590;28;20314;-65
2021/08/23 06:28:22;;;;;;;7.33;6.60;;;22.90;99.90;;;;;;5105192;28;20184;-66
2021/08/23 06:30:48;;;;;;;8.10;6.50;;;23.00;99.90;;;;;;5113166;28;20705;-64
2021/08/23 06:33:13;;;;;;;9.27;6.03;;;23.10;99.90;;;;;;5114335;28;20557;-64
2021/08/23 06:35:40;;;;;;;8.20;6.10;;;23.20;99.90;;;;;;5108293;28;20232;-66
2021/08/23 06:38:05;;;;;;;8.87;6.27;;;23.30;99.90;;;;;;5093947;28;20173;-65
2021/08/23 06:40:31;;;;;;;8.73;6.77;;;23.30;99.90;;;;;;5109359;28;20474;-64
2021/08/23 06:42:57;;;;;;;7.03;6.33;;;23.40;99.90;;;;;;5111942;28;20182;-64
2021/08/23 06:45:22;;;;;;;6.73;6.13;;;23.50;99.90;;;;;;5111920;28;20196;-65
2021/08/23 06:47:48;;;;;;;7.93;6.50;;;23.50;99.90;;;;;;5111884;28;20182;-65
2021/08/23 06:50:13;;;;;;;11.87;6.00;;;23.60;99.90;;;;;;5144556;27;20200;-66
2021/08/23 06:52:40;;;;;;;7.40;6.30;;;23.70;99.90;;;;;;5107232;28;20183;-65
2021/08/23 06:55:07;;;;;;;6.83;6.13;;;23.70;99.90;;;;;;5112191;28;20203;-65
2021/08/23 06:57:32;;;;;;;8.90;6.60;;;23.80;99.90;;;;;;5113899;28;20412;-65
2021/08/23 06:59:58;;;;;;;7.70;6.37;;;23.90;99.90;;;;;;5146475;27;20840;-65
2021/08/23 07:02:23;;;;;;;12.00;6.60;;;23.90;99.90;;;;;;5113785;28;20172;-65
2021/08/23 07:04:49;;;;;;;8.87;6.90;;;24.00;99.90;;;;;;5113417;28;20211;-65
2021/08/23 07:07:16;;;;;;;8.20;6.57;;;24.10;99.90;;;;;;5113778;28;20628;-65
2021/08/23 07:09:43;;;;;;;6.80;6.10;;;24.10;99.90;;;;;;5113367;28;20582;-65
2021/08/23 07:12:09;;;;;;;6.63;5.93;;;24.20;99.90;;;;;;5116458;28;20765;-65
2021/08/23 07:14:36;;;;;;;8.50;5.97;;;24.30;99.90;;;;;;5116499;28;20424;-66
2021/08/23 07:17:05;;;;;;;7.53;5.60;;;24.30;99.90;;;;;;5115473;28;20511;-64
2021/08/23 07:19:31;;;;;;;7.27;6.23;;;24.40;99.80;;;;;;5115172;28;22147;-65
2021/08/23 07:21:57;;;;;;;8.67;7.37;;;24.50;99.90;;;;;;5115671;28;20473;-66
2021/08/23 07:24:22;;;;;;;12.80;6.30;;;24.60;99.60;;;;;;5116531;28;20465;-64
2021/08/23 07:26:48;;;;;;;8.73;7.00;;;24.70;99.70;;;;;;5116871;28;20609;-65
2021/08/23 07:29:14;;;;;;;10.13;6.27;;;24.70;99.70;;;;;;5116385;28;20178;-65
2021/08/23 07:31:41;;;;;;;9.00;5.70;;;24.80;99.60;;;;;;5115617;28;20207;-64
2021/08/23 07:34:06;;;;;;;7.33;5.97;;;24.90;99.40;;;;;;5112721;28;20184;-66
2021/08/23 07:36:32;;;;;;;6.30;5.57;;;24.90;99.20;;;;;;5110825;28;20453;-67
2021/08/23 07:38:58;;;;;;;8.77;6.30;;;25.00;99.00;;;;;;5101016;28;20249;-66
2021/08/23 07:41:23;;;;;;;6.33;5.73;;;25.00;99.00;;;;;;5114658;28;20254;-67
2021/08/23 07:43:49;;;;;;;9.30;7.10;;;25.10;99.00;;;;;;5108794;28;20270;-65
2021/08/23 07:46:14;;;;;;;6.87;5.87;;;25.20;98.80;;;;;;5116550;28;20202;-65
2021/08/23 07:48:42;;;;;;;8.50;6.57;;;25.20;98.40;;;;;;5116874;28;20181;-65
2021/08/23 07:51:10;;;;;;;8.57;6.23;;;25.30;98.50;;;;;;5112883;28;20255;-66
2021/08/23 07:53:35;;;;;;;9.10;6.00;;;25.40;98.50;;;;;;5102877;28;20429;-65
2021/08/23 07:56:01;;;;;;;7.93;6.20;;;25.40;98.50;;;;;;5100633;28;20526;-64
2021/08/23 07:58:27;;;;;;;6.93;6.20;;;25.50;98.40;;;;;;5100680;28;20607;-64
2021/08/23 08:00:52;;;;;;;6.03;5.43;;;25.60;98.20;;;;;;5099769;28;20221;-65
2021/08/23 08:03:18;;;;;;;6.10;5.50;;;25.70;98.00;;;;;;5115766;28;20219;-65
2021/08/23 08:05:44;;;;;;;7.70;7.00;;;25.70;97.80;;;;;;5116271;28;20207;-66
2021/08/23 08:08:10;;;;;;;17.20;13.93;;;25.80;97.80;;;;;;5110341;28;20181;-64
2021/08/23 08:10:36;;;;;;;6.43;5.83;;;25.80;97.60;;;;;;5114816;28;20202;-66
2021/08/23 08:13:03;;;;;;;7.03;5.37;;;26.00;97.50;;;;;;5107601;28;20662;-65
2021/08/23 08:15:29;;;;;;;7.83;5.37;;;26.00;97.00;;;;;;5111454;28;20451;-64
2021/08/23 08:17:55;;;;;;;6.73;6.07;;;26.10;96.40;;;;;;5098541;28;20431;-64
2021/08/23 08:20:20;;;;;;;6.90;5.77;;;26.20;96.00;;;;;;5109641;28;20475;-64
2021/08/23 08:22:46;;;;;;;6.33;5.73;;;26.40;96.40;;;;;;5105410;28;20472;-66
2021/08/23 08:25:13;;;;;;;8.00;5.40;;;26.40;96.40;;;;;;5110337;28;20235;-67
2021/08/23 08:27:38;;;;;;;5.50;5.00;;;26.50;96.40;;;;;;5101785;28;20588;-64
2021/08/23 08:30:06;;;;;;;7.50;5.50;;;26.60;96.40;;;;;;5104857;28;20541;-64
2021/08/23 08:32:32;;;;;;;6.40;5.33;;;26.70;96.40;;;;;;5102288;28;20620;-65
2021/08/23 08:34:58;;;;;;;5.60;5.10;;;26.80;96.10;;;;;;5105289;28;20530;-64
2021/08/23 08:37:24;;;;;;;5.87;5.27;;;26.80;95.90;;;;;;5112342;28;20296;-66
2021/08/23 08:39:49;;;;;;;5.80;5.20;;;26.90;95.90;;;;;;5103361;28;20670;-65
2021/08/23 08:42:17;;;;;;;7.23;4.87;;;27.00;95.30;;;;;;5103478;28;20428;-65
2021/08/23 08:44:43;;;;;;;6.60;5.00;;;27.10;95.60;;;;;;5101009;28;20228;-64
2021/08/23 08:47:14;;;;;;;6.53;5.07;;;27.20;95.40;;;;;;5103825;28;20471;-64
2021/08/23 08:49:40;;;;;;;5.40;4.57;;;27.30;95.30;;;;;;5099555;28;21742;-64
2021/08/23 08:52:07;;;;;;;5.43;4.93;;;27.40;95.10;;;;;;5100061;28;20433;-65
2021/08/23 08:54:33;;;;;;;4.77;4.37;;;27.50;95.10;;;;;;5105692;28;20448;-65
2021/08/23 08:57:03;;;;;;;4.93;4.53;;;27.60;94.90;;;;;;5106757;28;20495;-65
2021/08/23 08:59:29;;;;;;;4.97;4.47;;;28.00;93.00;;;;;;5102389;28;20179;-65
2021/08/23 09:01:56;;;;;;;6.60;4.90;;;28.70;92.10;;;;;;5095792;28;20788;-65
2021/08/23 09:04:35;;;;;;;6.40;4.40;;;29.40;91.40;;;;;;5105472;28;20455;-65
2021/08/23 09:07:03;;;;;;;8.20;4.77;;;29.90;91.60;;;;;;5097854;28;20821;-67
2021/08/23 09:09:29;;;;;;;5.20;4.53;;;30.20;90.50;;;;;;5108419;28;20448;-65
2021/08/23 09:12:12;;;;;;;6.60;4.27;;;30.10;91.10;;;;;;5115103;27;20426;-65
2021/08/23 09:14:47;;;;;;;5.00;4.57;;;30.10;89.40;;;;;;5099074;27;20989;-65
2021/08/23 09:17:13;;;;;;;7.40;3.83;;;30.00;90.60;;;;;;5111455;28;20432;-66
2021/08/23 09:19:40;;;;;;;4.30;3.90;;;29.80;91.00;;;;;;5108581;28;21111;-64
2021/08/23 09:22:16;;;;;;;4.63;4.20;;;29.70;91.10;;;;;;5107429;28;20548;-64
2021/08/23 09:24:42;;;;;;;4.60;4.20;;;29.60;91.20;;;;;;5108868;28;20472;-65
2021/08/23 09:27:11;;;;;;;4.67;3.63;;;29.50;90.10;;;;;;5110511;28;20523;-66
2021/08/23 09:30:00;;;;;;;6.03;4.77;;;29.50;90.30;;;;;;5106971;28;20435;-65
2021/08/23 09:32:33;;;;;;;5.10;4.43;;;29.40;91.10;;;;;;5104886;28;20706;-65
2021/08/23 09:35:00;;;;;;;5.00;4.20;;;29.30;91.20;;;;;;5108293;28;20449;-65
2021/08/23 09:37:29;;;;;;;4.80;3.73;;;29.30;89.30;;;;;;5107271;28;20434;-65
2021/08/23 09:39:55;;;;;;;4.10;3.80;;;29.30;90.10;;;;;;5099763;28;20507;-65
2021/08/23 09:42:22;;;;;;;4.50;4.20;;;29.30;90.40;;;;;;5133274;27;20440;-65
2021/08/23 09:44:49;;;;;;;5.53;3.57;;;29.20;91.00;;;;;;5103543;28;20957;-66
2021/08/23 09:47:15;;;;;;;5.93;3.50;;;29.20;90.50;;;;;;5106889;28;20440;-65
2021/08/23 09:49:44;;;;;;;3.80;3.50;;;29.30;89.30;;;;;;5102895;28;20449;-65
2021/08/23 09:52:13;;;;;;;4.23;3.50;;;29.20;90.60;;;;;;5116651;27;20513;-65
2021/08/23 09:54:39;;;;;;;4.53;3.60;;;29.20;90.40;;;;;;5100241;28;20452;-65
2021/08/23 09:57:06;;;;;;;4.70;4.03;;;29.20;90.70;;;;;;5095640;28;20425;-65
2021/08/23 09:59:39;;;;;;;4.07;3.67;;;29.20;90.70;;;;;;5095404;28;20264;-66
2021/08/23 10:02:06;;;;;;;4.27;3.87;;;29.30;90.00;;;;;;5098871;28;20900;-67
2021/08/23 10:04:32;;;;;;;3.97;3.57;;;29.30;89.00;;;;;;5099053;28;20450;-65
2021/08/23 10:06:58;;;;;;;3.67;3.30;;;29.40;86.20;;;;;;5102606;28;20475;-65
2021/08/23 10:09:26;;;;;;;4.03;3.57;;;29.50;85.90;;;;;;5100324;28;20426;-65
2021/08/23 10:11:57;;;;;;;4.30;3.87;;;29.50;86.80;;;;;;5105265;28;20181;-67
2021/08/23 10:14:23;;;;;;;4.13;3.37;;;29.60;84.50;;;;;;5110303;28;20450;-65
2021/08/23 10:16:49;;;;;;;4.20;3.80;;;29.70;83.80;;;;;;5111691;28;20426;-66
2021/08/23 10:19:15;;;;;;;4.57;3.67;;;29.70;83.20;;;;;;5105812;28;20415;-67
2021/08/23 10:21:46;;;;;;;4.57;3.77;;;29.80;83.50;;;;;;5103568;28;20589;-65
2021/08/23 10:24:26;;;;;;;4.90;3.40;;;29.90;83.60;;;;;;5106711;28;20486;-65
2021/08/23 10:26:52;;;;;;;3.60;3.30;;;29.90;84.20;;;;;;5107238;28;20849;-66
2021/08/23 10:29:18;;;;;;;3.40;3.10;;;30.00;85.00;;;;;;5104873;28;20430;-65
2021/08/23 10:31:46;;;;;;;4.00;3.60;;;30.10;82.60;;;;;;5097918;28;21036;-65
2021/08/23 10:34:17;;;;;;;4.30;3.30;;;30.10;81.80;;;;;;5092031;28;20652;-65
2021/08/23 10:36:44;;;;;;;4.20;3.37;;;30.10;81.50;;;;;;5098274;28;20435;-66
2021/08/23 10:39:18;;;;;;;5.10;3.83;;;30.20;82.00;;;;;;5101372;28;20431;-66
2021/08/23 10:41:43;;;;;;;3.60;3.30;;;30.20;82.30;;;;;;5110892;28;20464;-65
2021/08/23 10:44:09;;;;;;;3.47;3.17;;;30.30;82.00;;;;;;5104380;28;20444;-67
2021/08/23 10:46:39;;;;;;;3.07;2.80;;;30.30;81.20;;;;;;5132025;27;20570;-65
2021/08/23 10:49:15;;;;;;;3.20;2.90;;;30.40;80.00;;;;;;5102169;28;20185;-65
2021/08/23 10:51:43;;;;;;;3.63;3.13;;;30.50;79.40;;;;;;5122490;28;20977;-65
2021/08/23 10:54:27;;;;;;;3.53;3.13;;;30.50;79.70;;;;;;5106979;28;20505;-65
2021/08/23 10:57:08;;;;;;;3.60;3.30;;;30.60;80.60;;;;;;5105486;28;20441;-65
2021/08/23 11:00:17;;;;;;;4.47;4.00;;;30.70;82.00;;;;;;5110375;28;20421;-67
2021/08/23 11:02:43;;;;;;;4.70;3.70;;;30.70;79.00;;;;;;5112238;28;20547;-66
2021/08/23 11:05:20;;;;;;;4.30;3.67;;;30.70;78.80;;;;;;5113361;28;20454;-64
2021/08/23 11:07:59;;;;;;;5.70;3.73;;;30.80;77.30;;;;;;5113163;28;20436;-65
2021/08/23 11:10:26;;;;;;;4.90;3.50;;;30.90;78.00;;;;;;5111711;28;20433;-65
2021/08/23 11:12:54;;;;;;;4.50;4.03;;;30.90;78.30;;;;;;5105623;28;20519;-66
2021/08/23 11:15:32;;;;;;;3.73;3.40;;;30.90;78.30;;;;;;5101318;28;20445;-65
2021/08/23 11:18:14;;;;;;;4.33;3.80;;;31.00;77.30;;;;;;5095879;28;20508;-66
2021/08/23 11:20:44;;;;;;;4.87;3.90;;;31.00;77.10;;;;;;5101081;28;20472;-65
2021/08/23 11:23:15;;;;;;;5.40;3.90;;;31.00;78.10;;;;;;5099431;28;20430;-65
2021/08/23 11:25:46;;;;;;;5.83;4.03;;;31.00;78.40;;;;;;5093879;28;21001;-67
2021/08/23 11:28:20;;;;;;;3.87;3.47;;;31.00;78.50;;;;;;5109431;28;20441;-66
2021/08/23 11:30:48;;;;;;;3.80;3.50;;;31.10;78.90;;;;;;5093378;28;20759;-65
2021/08/23 11:33:29;;;;;;;9.30;3.87;;;31.10;79.30;;;;;;5099322;28;20978;-65
2021/08/23 11:35:56;;;;;;;5.90;5.00;;;31.10;77.60;;;;;;5111668;28;20425;-65
2021/08/23 11:38:33;;;;;;;4.03;3.63;;;31.10;76.80;;;;;;5113338;28;20421;-65
2021/08/23 11:41:00;;;;;;;4.30;3.90;;;31.10;78.50;;;;;;5113507;28;20995;-66
2021/08/23 11:43:27;;;;;;;7.70;6.03;;;31.20;77.70;;;;;;5113935;28;20936;-65
2021/08/23 11:45:53;;;;;;;5.90;4.00;;;31.20;77.20;;;;;;5113248;28;20440;-65
2021/08/23 11:48:18;;;;;;;4.87;4.47;;;31.20;77.60;;;;;;5113706;28;20427;-65
2021/08/23 11:50:44;;;;;;;4.30;3.90;;;31.20;77.90;;;;;;5113646;28;20430;-65
2021/08/23 11:53:12;;;;;;;5.30;4.70;;;31.30;76.80;;;;;;5113797;28;20185;-67
2021/08/23 11:55:46;;;;;;;4.37;3.97;;;31.30;77.00;;;;;;5099634;28;20703;-66
2021/08/23 11:58:13;;;;;;;5.37;4.90;;;31.30;78.60;;;;;;5111480;28;20434;-64
2021/08/23 12:00:41;;;;;;;4.73;4.23;;;31.40;79.20;;;;;;5113141;28;20478;-67
2021/08/23 12:03:12;;;;;;;4.53;4.13;;;31.40;80.20;;;;;;5131167;27;20478;-67
2021/08/23 12:05:49;;;;;;;4.87;4.47;;;31.30;80.80;;;;;;5099212;28;20458;-66
2021/08/23 12:08:21;;;;;;;4.77;4.37;;;31.30;81.00;;;;;;5113011;28;20438;-65
2021/08/23 12:10:58;;;;;;;4.07;3.77;;;31.30;80.90;;;;;;5095368;28;20449;-65
2021/08/23 12:13:37;;;;;;;5.50;4.60;;;31.30;81.10;;;;;;5110041;28;20436;-66
2021/08/23 12:16:06;;;;;;;5.87;4.90;;;31.30;81.40;;;;;;5095944;28;20458;-67
2021/08/23 12:18:37;;;;;;;5.13;4.33;;;31.30;81.50;;;;;;5140426;27;20434;-64
2021/08/23 12:21:20;;;;;;;5.00;4.60;;;31.30;82.30;;;;;;5102412;28;21005;-65
2021/08/23 12:24:03;;;;;;;4.57;4.17;;;31.30;81.70;;;;;;5104189;28;20955;-65
2021/08/23 12:26:34;;;;;;;5.70;4.43;;;31.30;81.60;;;;;;5100746;28;20979;-65
2021/08/23 12:29:11;;;;;;;5.20;4.70;;;31.30;81.60;;;;;;5106394;28;20853;-65
2021/08/23 12:31:56;;;;;;;4.90;4.50;;;31.40;82.00;;;;;;5106687;28;20430;-65
2021/08/23 12:34:25;;;;;;;5.43;4.60;;;31.50;83.20;;;;;;5111454;28;20739;-65
2021/08/23 12:36:51;;;;;;;6.93;5.27;;;31.50;82.00;;;;;;5103615;28;20475;-65
2021/08/23 12:39:17;;;;;;;4.90;4.40;;;31.50;81.50;;;;;;5094267;28;20446;-65
2021/08/23 12:41:48;;;;;;;5.20;4.63;;;31.50;81.30;;;;;;5101971;28;20229;-66
2021/08/23 12:44:15;;;;;;;6.60;5.07;;;31.60;81.60;;;;;;5143884;27;20434;-66
2021/08/23 12:46:41;;;;;;;6.30;4.57;;;31.50;81.60;;;;;;5139183;27;20826;-65
2021/08/23 12:49:08;;;;;;;5.70;4.73;;;31.60;81.70;;;;;;5115572;28;20499;-66